createdAt,value
2019-02-14T00:01:56.074Z,81.97
2019-02-14T00:04:25.403Z,83.68
2019-02-14T00:06:54.715Z,79.76
2019-02-14T00:09:24.031Z,82.56
2019-02-14T00:11:53.345Z,83.93
2019-02-14T00:14:22.647Z,87.54
2019-02-14T00:16:51.148Z,85.95
2019-02-14T00:19:19.755Z,88.96
2019-02-14T00:21:48.268Z,87.27
2019-02-14T00:27:19.568Z,90.71
2019-02-14T00:29:48.871Z,90.78
2019-02-14T00:32:18.316Z,90.88
2019-02-14T00:34:47.692Z,90.26
2019-02-14T00:37:17.577Z,90.99
2019-02-14T00:43:11.974Z,91.24
2019-02-14T00:46:12.327Z,93.00
2019-02-14T00:48:40.946Z,94.02
2019-02-14T00:51:09.351Z,91.11
2019-02-14T00:53:38.666Z,92.13
2019-02-14T00:56:07.970Z,90.41
2019-02-14T00:58:37.269Z,91.77
2019-02-14T01:01:06.576Z,92.24
2019-02-14T01:03:35.874Z,92.56
2019-02-14T01:06:05.182Z,89.57
2019-02-14T01:08:33.696Z,91.16
2019-02-14T01:11:02.200Z,88.82
2019-02-14T01:16:33.066Z,89.16
2019-02-14T01:19:01.678Z,89.59
2019-02-14T01:21:30.985Z,92.37
2019-02-14T01:24:00.328Z,92.02
2019-02-14T01:26:29.622Z,94.62
2019-02-14T01:28:58.137Z,92.27
2019-02-14T01:31:26.638Z,93.27
2019-02-14T01:37:48.205Z,94.25
2019-02-14T01:40:55.602Z,93.38
2019-02-14T01:43:24.038Z,94.17
2019-02-14T01:48:54.466Z,95.82
2019-02-14T01:51:23.888Z,94.20
2019-02-14T01:53:53.223Z,94.25
2019-02-14T01:56:22.535Z,95.60
2019-02-14T01:58:51.037Z,95.12
2019-02-14T02:01:20.415Z,95.72
2019-02-14T02:03:49.722Z,94.24
2019-02-14T02:06:18.229Z,95.46
2019-02-14T02:08:46.730Z,96.88
2019-02-14T02:11:16.037Z,93.99
2019-02-14T02:13:45.354Z,92.85
2019-02-14T02:16:14.739Z,92.36
2019-02-14T02:18:44.082Z,91.60
2019-02-14T02:21:13.503Z,92.21
2019-02-14T02:23:42.810Z,92.43
2019-02-14T02:26:12.113Z,91.42
2019-02-14T02:28:41.445Z,90.22
2019-02-14T02:31:10.748Z,88.98
2019-02-14T02:33:39.399Z,87.16
2019-02-14T02:36:08.703Z,90.28
2019-02-14T02:38:38.011Z,89.63
2019-02-14T02:41:07.351Z,89.42
2019-02-14T02:43:36.646Z,86.65
2019-02-14T02:46:05.959Z,88.55
2019-02-14T02:48:35.286Z,85.02
2019-02-14T02:51:04.602Z,85.69
2019-02-14T02:53:33.905Z,84.48
2019-02-14T02:56:03.266Z,84.02
2019-02-14T02:58:31.773Z,84.59
2019-02-14T03:01:00.166Z,84.11
2019-02-14T03:03:28.743Z,85.39
2019-02-14T03:05:58.099Z,87.73
2019-02-14T03:08:27.431Z,86.15
2019-02-14T03:10:56.800Z,84.56
2019-02-14T03:13:25.311Z,85.36
2019-02-14T03:15:54.625Z,86.61
2019-02-14T03:18:23.124Z,88.70
2019-02-14T03:20:51.649Z,89.88
2019-02-14T03:23:20.165Z,88.68
2019-02-14T03:25:49.480Z,90.56
2019-02-14T03:28:18.781Z,89.08
2019-02-14T03:30:48.106Z,88.88
2019-02-14T03:33:16.605Z,86.45
2019-02-14T03:35:45.919Z,92.71
2019-02-14T03:38:14.335Z,86.22
2019-02-14T03:40:43.647Z,85.91
2019-02-14T03:43:12.965Z,88.00
2019-02-14T03:45:41.383Z,88.26
2019-02-14T03:48:10.698Z,86.97
2019-02-14T03:50:40.005Z,92.24
2019-02-14T03:53:09.315Z,86.12
2019-02-14T03:55:38.636Z,85.74
2019-02-14T03:58:07.964Z,84.10
2019-02-14T04:00:37.272Z,82.16
2019-02-14T04:03:06.580Z,81.38
2019-02-14T04:05:35.086Z,80.92
2019-02-14T04:08:04.395Z,81.92
2019-02-14T04:10:33.014Z,82.15
2019-02-14T04:13:01.529Z,83.52
2019-02-14T04:15:30.853Z,81.51
2019-02-14T04:18:00.169Z,81.82
2019-02-14T04:20:29.495Z,82.05
2019-02-14T04:22:58.811Z,82.22
2019-02-14T04:25:27.350Z,82.65
2019-02-14T04:27:55.960Z,83.67
2019-02-14T04:30:24.467Z,85.81
2019-02-14T04:32:53.773Z,83.00
2019-02-14T04:35:23.089Z,85.82
2019-02-14T04:37:52.401Z,85.58
2019-02-14T04:40:21.711Z,84.48
2019-02-14T04:42:51.041Z,84.60
2019-02-14T04:45:20.347Z,84.31
2019-02-14T04:47:49.664Z,84.61
2019-02-14T04:50:18.971Z,85.21
2019-02-14T04:52:47.466Z,85.02
2019-02-14T04:55:15.965Z,86.38
2019-02-14T04:57:45.269Z,85.31
2019-02-14T05:00:14.706Z,85.92
2019-02-14T05:02:44.024Z,84.90
2019-02-14T05:05:12.638Z,88.10
2019-02-14T05:07:42.059Z,85.97
2019-02-14T05:10:11.603Z,86.58
2019-02-14T05:12:40.915Z,88.20
2019-02-14T05:15:10.543Z,89.16
2019-02-14T05:17:38.972Z,87.51
2019-02-14T05:20:08.211Z,88.83
2019-02-14T05:22:36.819Z,87.33
2019-02-14T05:25:06.405Z,89.20
2019-02-14T05:27:35.722Z,87.30
2019-02-14T05:30:05.906Z,87.11
2019-02-14T05:32:35.226Z,87.54
2019-02-14T05:35:04.999Z,87.91
2019-02-14T05:37:34.310Z,88.56
2019-02-14T05:40:03.061Z,88.39
2019-02-14T05:42:31.568Z,86.69
2019-02-14T05:45:00.228Z,88.40
2019-02-14T05:47:29.599Z,88.62
2019-02-14T05:49:58.911Z,90.24
2019-02-14T05:52:28.239Z,87.40
2019-02-14T05:54:57.566Z,89.56
2019-02-14T05:57:27.475Z,88.84
2019-02-14T06:03:12.158Z,86.99
2019-02-14T06:05:41.526Z,88.87
2019-02-14T06:08:10.840Z,85.82
2019-02-14T06:10:40.162Z,86.93
2019-02-14T06:13:09.469Z,86.16
2019-02-14T06:15:38.789Z,85.31
2019-02-14T06:18:08.104Z,85.03
2019-02-14T06:20:37.469Z,84.22
2019-02-14T06:23:06.806Z,83.27
2019-02-14T06:25:36.131Z,85.19
2019-02-14T06:28:04.637Z,81.62
2019-02-14T06:30:33.194Z,83.28
2019-02-14T06:33:02.654Z,83.05
2019-02-14T06:35:32.279Z,80.92
2019-02-14T06:38:01.607Z,82.27
2019-02-14T06:40:30.937Z,80.34
2019-02-14T06:43:00.273Z,78.88
2019-02-14T06:45:29.592Z,78.33
2019-02-14T06:47:58.932Z,82.49
2019-02-14T06:50:34.563Z,79.30
2019-02-14T06:53:17.438Z,80.28
2019-02-14T06:55:45.967Z,80.92
2019-02-14T06:58:14.384Z,77.46
2019-02-14T07:00:43.003Z,77.15
2019-02-14T07:03:12.315Z,79.08
2019-02-14T07:05:40.977Z,78.27
2019-02-14T07:08:09.487Z,78.61
2019-02-14T07:10:38.010Z,77.77
2019-02-14T07:13:07.357Z,77.19
2019-02-14T07:15:36.712Z,78.80
2019-02-14T07:18:05.268Z,76.42
2019-02-14T07:20:33.886Z,75.85
2019-02-14T07:23:03.303Z,75.56
2019-02-14T07:25:31.916Z,75.54
2019-02-14T07:28:01.234Z,76.88
2019-02-14T07:30:30.560Z,74.28
2019-02-14T07:32:59.902Z,73.64
2019-02-14T07:35:28.541Z,73.90
2019-02-14T07:37:58.097Z,76.07
2019-02-14T07:40:27.402Z,74.91
2019-02-14T07:42:56.875Z,72.31
2019-02-14T07:45:26.164Z,72.79
2019-02-14T07:47:54.672Z,74.82
2019-02-14T07:50:24.012Z,72.79
2019-02-14T07:52:53.352Z,71.33
2019-02-14T07:55:22.695Z,71.44
2019-02-14T07:57:51.322Z,70.40
2019-02-14T08:00:20.700Z,71.14
2019-02-14T08:02:50.133Z,69.63
2019-02-14T08:05:18.699Z,68.81
2019-02-14T08:07:48.257Z,69.28
2019-02-14T08:10:17.681Z,69.45
2019-02-14T08:12:47.287Z,67.39
2019-02-14T08:15:16.606Z,68.32
2019-02-14T08:17:45.913Z,67.24
2019-02-14T08:20:15.276Z,72.16
2019-02-14T08:22:44.619Z,66.91
2019-02-14T08:25:13.926Z,66.62
2019-02-14T08:27:42.537Z,67.18
2019-02-14T08:30:12.793Z,65.75
2019-02-14T08:32:41.300Z,67.09
2019-02-14T08:35:10.610Z,65.67
2019-02-14T08:37:45.695Z,63.95
2019-02-14T08:40:29.383Z,63.75
2019-02-14T08:42:58.906Z,63.32
2019-02-14T08:45:28.275Z,62.94
2019-02-14T08:47:57.598Z,61.79
2019-02-14T08:50:26.934Z,61.48
2019-02-14T08:52:55.464Z,61.97
2019-02-14T08:55:23.886Z,64.17
2019-02-14T08:57:52.423Z,64.98
2019-02-14T09:00:21.857Z,63.30
2019-02-14T09:02:51.252Z,63.32
2019-02-14T09:05:20.663Z,62.34
2019-02-14T09:07:54.715Z,62.44
2019-02-14T09:13:23.730Z,63.36
2019-02-14T09:18:35.702Z,59.03
2019-02-14T09:21:04.227Z,58.12
2019-02-14T09:23:32.810Z,62.53
2019-02-14T09:26:02.481Z,60.19
2019-02-14T09:28:31.160Z,56.64
2019-02-14T09:30:59.850Z,56.07
2019-02-14T09:33:28.480Z,56.30
2019-02-14T09:35:57.187Z,57.07
2019-02-14T09:38:25.835Z,57.27
2019-02-14T09:43:56.580Z,55.10
2019-02-14T09:46:25.095Z,57.59
2019-02-14T09:48:53.641Z,58.16
2019-02-14T09:51:22.152Z,54.69
2019-02-14T09:53:50.583Z,54.72
2019-02-14T09:59:21.859Z,57.87
2019-02-14T10:01:51.282Z,53.82
2019-02-14T10:04:20.690Z,53.90
2019-02-14T10:06:49.307Z,52.85
2019-02-14T10:09:17.902Z,53.03
2019-02-14T10:11:47.228Z,52.71
2019-02-14T10:14:16.530Z,55.14
2019-02-14T10:16:45.848Z,50.37
2019-02-14T10:19:15.211Z,50.54
2019-02-14T10:21:43.815Z,52.44
2019-02-14T10:24:13.276Z,48.95
2019-02-14T10:26:42.602Z,48.99
2019-02-14T10:29:11.123Z,51.79
2019-02-14T10:31:39.635Z,52.31
2019-02-14T10:36:51.153Z,50.41
2019-02-14T10:39:19.667Z,50.22
2019-02-14T10:41:48.985Z,53.50
2019-02-14T10:44:18.326Z,49.96
2019-02-14T10:46:47.639Z,51.89
2019-02-14T10:49:16.969Z,50.58
2019-02-14T10:51:46.284Z,51.08
2019-02-14T10:54:14.914Z,51.01
2019-02-14T10:56:43.414Z,51.69
2019-02-14T10:59:11.939Z,52.08
2019-02-14T11:01:40.450Z,52.33
2019-02-14T11:04:09.197Z,52.97
2019-02-14T11:06:38.512Z,53.98
2019-02-14T11:09:07.968Z,54.42
2019-02-14T11:11:37.266Z,56.30
2019-02-14T11:14:06.599Z,53.75
2019-02-14T11:16:35.917Z,56.53
2019-02-14T11:19:05.374Z,57.70
2019-02-14T11:21:33.894Z,54.64
2019-02-14T11:24:02.510Z,55.40
2019-02-14T11:26:31.839Z,55.56
2019-02-14T11:29:01.180Z,55.97
2019-02-14T11:31:30.510Z,56.66
2019-02-14T11:33:59.827Z,56.75
2019-02-14T11:36:29.136Z,54.81
2019-02-14T11:38:58.465Z,54.75
2019-02-14T11:41:26.983Z,55.97
2019-02-14T11:43:56.402Z,57.53
2019-02-14T11:46:24.818Z,54.02
2019-02-14T11:48:53.448Z,54.50
2019-02-14T11:51:22.801Z,54.73
2019-02-14T11:53:52.130Z,57.74
2019-02-14T11:56:21.466Z,56.30
2019-02-14T11:58:50.780Z,58.60
2019-02-14T12:01:20.107Z,58.60
2019-02-14T12:03:49.422Z,56.78
2019-02-14T12:06:18.053Z,56.43
2019-02-14T12:08:57.691Z,57.91
2019-02-14T12:11:35.754Z,57.25
2019-02-14T12:14:05.125Z,57.85
2019-02-14T12:16:34.444Z,57.59
2019-02-14T12:19:03.752Z,56.54
2019-02-14T12:21:33.088Z,57.13
2019-02-14T12:24:02.404Z,57.24
2019-02-14T12:26:31.734Z,58.46
2019-02-14T12:29:01.052Z,56.77
2019-02-14T12:31:30.366Z,56.03
2019-02-14T12:33:59.014Z,57.56
2019-02-14T12:36:27.669Z,57.83
2019-02-14T12:38:56.281Z,59.14
2019-02-14T12:41:25.174Z,61.61
2019-02-14T12:43:53.679Z,56.52
2019-02-14T12:46:22.349Z,57.44
2019-02-14T12:48:51.671Z,57.74
2019-02-14T12:51:21.018Z,55.68
2019-02-14T12:53:49.844Z,56.98
2019-02-14T12:56:18.465Z,58.50
2019-02-14T12:58:47.788Z,55.69
2019-02-14T13:01:17.122Z,55.51
2019-02-14T13:03:46.432Z,59.05
2019-02-14T13:06:15.773Z,56.33
2019-02-14T13:08:45.143Z,56.94
2019-02-14T13:11:13.700Z,55.77
2019-02-14T13:13:42.266Z,56.48
2019-02-14T13:16:10.861Z,57.71
2019-02-14T13:18:39.377Z,54.49
2019-02-14T13:21:08.722Z,57.84
2019-02-14T13:23:38.069Z,56.38
2019-02-14T13:26:07.380Z,57.00
2019-02-14T13:28:36.711Z,55.39
2019-02-14T13:31:06.124Z,57.45
2019-02-14T13:33:35.505Z,56.85
2019-02-14T13:36:06.283Z,55.74
2019-02-14T13:38:35.027Z,56.79
2019-02-14T13:41:04.555Z,54.47
2019-02-14T13:43:33.181Z,53.57
2019-02-14T13:46:01.820Z,58.93
2019-02-14T13:48:31.246Z,56.42
2019-02-14T13:51:00.569Z,57.94
2019-02-14T13:53:29.892Z,58.40
2019-02-14T13:55:59.214Z,57.25
2019-02-14T13:58:28.651Z,54.58
2019-02-14T14:00:58.155Z,56.00
2019-02-14T14:03:27.686Z,60.17
2019-02-14T14:05:57.010Z,59.92
2019-02-14T14:08:26.079Z,56.15
2019-02-14T14:10:55.424Z,56.45
2019-02-14T14:13:24.133Z,57.55
2019-02-14T14:15:53.505Z,59.68
2019-02-14T14:18:22.069Z,58.65
2019-02-14T14:20:50.910Z,57.13
2019-02-14T14:23:19.979Z,59.34
2019-02-14T14:25:48.635Z,61.75
2019-02-14T14:28:17.372Z,58.41
2019-02-14T14:30:46.221Z,61.92
2019-02-14T14:33:14.959Z,61.53
2019-02-14T14:35:43.790Z,64.83
2019-02-14T14:38:12.626Z,57.95
2019-02-14T14:40:41.974Z,60.62
2019-02-14T14:43:32.747Z,61.45
2019-02-14T14:46:23.682Z,62.80
2019-02-14T14:48:52.318Z,63.08
2019-02-14T14:51:21.258Z,59.03
2019-02-14T14:53:49.935Z,61.21
2019-02-14T14:56:19.264Z,61.78
2019-02-14T14:58:48.261Z,60.75
2019-02-14T15:01:16.805Z,61.68
2019-02-14T15:03:45.340Z,62.82
2019-02-14T15:06:13.986Z,62.79
2019-02-14T15:08:42.895Z,67.35
2019-02-14T15:11:11.753Z,63.72
2019-02-14T15:13:40.684Z,64.50
2019-02-14T15:16:09.723Z,63.67
2019-02-14T15:18:38.259Z,63.41
2019-02-14T15:21:07.010Z,66.60
2019-02-14T15:23:35.572Z,70.42
2019-02-14T15:26:04.201Z,68.86
2019-02-14T15:28:32.934Z,68.90
2019-02-14T15:31:01.579Z,66.22
2019-02-14T15:33:30.212Z,64.51
2019-02-14T15:35:58.894Z,68.02
2019-02-14T15:38:27.451Z,64.96
2019-02-14T15:40:56.173Z,66.65
2019-02-14T15:43:24.827Z,65.49
2019-02-14T15:45:53.849Z,67.77
2019-02-14T15:48:22.598Z,66.87
2019-02-14T15:50:53.691Z,68.85
2019-02-14T15:53:21.729Z,67.80
2019-02-14T15:55:50.560Z,68.49
2019-02-14T15:58:19.302Z,71.91
2019-02-14T16:00:50.001Z,67.57
2019-02-14T16:03:19.603Z,69.88
2019-02-14T16:05:48.327Z,68.48
2019-02-14T16:08:17.166Z,68.46
2019-02-14T16:10:45.877Z,69.81
2019-02-14T16:13:14.809Z,72.79
2019-02-14T16:15:43.430Z,73.08
2019-02-14T16:18:12.171Z,74.68
2019-02-14T16:20:42.490Z,71.62
2019-02-14T16:23:31.762Z,76.08
2019-02-14T16:26:00.504Z,70.53
2019-02-14T16:31:32.315Z,70.72
2019-02-14T16:34:01.676Z,70.99
2019-02-14T16:36:32.465Z,69.94
2019-02-14T16:39:20.719Z,68.65
2019-02-14T16:42:09.500Z,69.54
2019-02-14T16:44:38.818Z,74.14
2019-02-14T16:47:07.442Z,71.32
2019-02-14T16:49:35.958Z,72.58
2019-02-14T16:52:05.286Z,73.71
2019-02-14T16:54:35.691Z,72.49
2019-02-14T16:57:23.831Z,75.12
2019-02-14T16:59:53.137Z,78.66
2019-02-14T17:02:22.481Z,73.10
2019-02-14T17:04:51.838Z,69.31
2019-02-14T17:07:21.188Z,75.51
2019-02-14T17:09:50.507Z,70.52
2019-02-14T17:12:19.847Z,68.99
2019-02-14T17:14:48.602Z,68.91
2019-02-14T17:17:17.387Z,69.20
2019-02-14T17:19:46.766Z,71.86
2019-02-14T17:22:16.132Z,68.14
2019-02-14T17:24:45.506Z,69.94
2019-02-14T17:27:14.827Z,69.31
2019-02-14T17:29:44.189Z,67.93
2019-02-14T17:32:13.541Z,67.55
2019-02-14T17:34:42.864Z,69.05
2019-02-14T17:37:11.377Z,73.71
2019-02-14T17:39:40.707Z,68.28
2019-02-14T17:42:10.052Z,68.43
2019-02-14T17:44:38.617Z,68.61
2019-02-14T17:47:07.970Z,71.42
2019-02-14T17:49:37.294Z,70.74
2019-02-14T17:52:06.629Z,69.99
2019-02-14T17:54:35.952Z,73.36
2019-02-14T17:57:05.285Z,70.54
2019-02-14T17:59:34.012Z,71.83
2019-02-14T18:02:05.357Z,72.60
2019-02-14T18:04:36.003Z,70.65
2019-02-14T18:07:24.352Z,70.99
2019-02-14T18:12:56.723Z,72.24
2019-02-14T18:15:29.890Z,73.78
2019-02-14T18:21:02.318Z,72.72
2019-02-14T18:23:30.954Z,71.48
2019-02-14T18:26:00.282Z,77.10
2019-02-14T18:28:29.606Z,71.63
2019-02-14T18:30:58.935Z,71.46
2019-02-14T18:33:28.290Z,74.37
2019-02-14T18:35:57.704Z,72.29
2019-02-14T18:38:27.031Z,76.44
2019-02-14T18:41:03.799Z,74.47
2019-02-14T18:43:45.933Z,74.98
2019-02-14T18:48:59.210Z,75.67
2019-02-14T18:51:28.545Z,76.24
2019-02-14T18:53:57.923Z,76.32
2019-02-14T18:56:27.248Z,76.62
2019-02-14T18:58:56.582Z,79.85
2019-02-14T19:01:25.151Z,80.48
2019-02-14T19:03:54.497Z,78.94
2019-02-14T19:06:23.119Z,79.86
2019-02-14T19:08:52.487Z,78.07
2019-02-14T19:11:21.805Z,78.27
2019-02-14T19:13:51.127Z,77.71
2019-02-14T19:16:20.461Z,78.44
2019-02-14T19:18:49.779Z,80.57
2019-02-14T19:21:19.092Z,79.52
2019-02-14T19:23:48.422Z,79.95
2019-02-14T19:26:16.960Z,80.00
2019-02-14T19:28:46.322Z,80.07
2019-02-14T19:31:15.762Z,81.95
2019-02-14T19:33:45.106Z,81.37
2019-02-14T19:36:13.619Z,81.48
2019-02-14T19:38:42.973Z,82.47
2019-02-14T19:41:12.276Z,81.51
2019-02-14T19:43:41.738Z,86.19
2019-02-14T19:46:11.075Z,82.01
2019-02-14T19:48:39.634Z,82.60
2019-02-14T19:51:08.274Z,82.76
2019-02-14T19:53:37.634Z,82.91
2019-02-14T19:56:06.958Z,86.46
2019-02-14T19:58:36.291Z,84.19
2019-02-14T20:01:05.790Z,84.81
2019-02-14T20:03:35.095Z,84.75
2019-02-14T20:06:04.459Z,88.31
2019-02-14T20:08:33.778Z,84.79
2019-02-14T20:11:02.425Z,85.38
2019-02-14T20:13:31.853Z,86.87
2019-02-14T20:16:00.376Z,87.74
2019-02-14T20:18:29.015Z,87.53
2019-02-14T20:20:58.323Z,87.81
2019-02-14T20:23:27.646Z,89.86
2019-02-14T20:25:57.111Z,90.24
2019-02-14T20:28:26.450Z,89.94
2019-02-14T20:30:55.786Z,90.29
2019-02-14T20:33:25.115Z,90.35
2019-02-14T20:35:54.427Z,91.16
2019-02-14T20:38:23.791Z,91.06
2019-02-14T20:40:52.420Z,91.04
2019-02-14T20:43:21.946Z,92.04
2019-02-14T20:45:51.380Z,91.96
2019-02-14T20:48:19.899Z,92.20
2019-02-14T20:50:49.243Z,92.11
2019-02-14T20:53:18.577Z,92.17
2019-02-14T20:55:47.917Z,93.34
2019-02-14T20:58:17.280Z,94.29
2019-02-14T21:00:45.805Z,94.39
2019-02-14T21:03:15.130Z,94.95
2019-02-14T21:05:43.670Z,96.73
2019-02-14T21:08:12.973Z,96.79
2019-02-14T21:10:42.300Z,98.30
2019-02-14T21:13:11.731Z,100.00
2019-02-14T21:15:41.033Z,97.10
2019-02-14T21:18:10.339Z,97.92
2019-02-14T21:20:38.882Z,99.70
2019-02-14T21:23:08.243Z,99.69
2019-02-14T21:25:37.621Z,100.00
2019-02-14T21:28:06.191Z,100.00
2019-02-14T21:30:36.413Z,100.00
2019-02-14T21:33:24.774Z,100.00
2019-02-14T21:38:55.700Z,100.00
2019-02-14T21:41:24.345Z,100.00
2019-02-14T21:46:56.056Z,100.00
2019-02-14T21:49:24.590Z,100.00
2019-02-14T21:51:53.898Z,100.00
2019-02-14T21:54:23.219Z,100.00
2019-02-14T21:59:55.364Z,100.00
2019-02-14T22:02:24.770Z,100.00
2019-02-14T22:04:54.082Z,100.00
2019-02-14T22:07:23.477Z,100.00
2019-02-14T22:09:52.089Z,100.00
2019-02-14T22:12:38.230Z,100.00
2019-02-14T22:15:11.914Z,100.00
2019-02-14T22:20:43.554Z,100.00
2019-02-14T22:23:12.980Z,100.00
2019-02-14T22:25:42.298Z,100.00
2019-02-14T22:28:10.909Z,100.00
2019-02-14T22:30:40.229Z,100.00
2019-02-14T22:33:08.749Z,100.00
2019-02-14T22:35:37.330Z,100.00
2019-02-14T22:41:07.935Z,100.00
2019-02-14T22:43:37.246Z,100.00
2019-02-14T22:46:05.786Z,100.00
2019-02-14T22:48:34.299Z,100.00
2019-02-14T22:51:02.837Z,100.00
2019-02-14T22:53:31.374Z,100.00
2019-02-14T22:55:59.790Z,100.00
2019-02-14T22:58:29.126Z,100.00
2019-02-14T23:04:01.140Z,100.00
2019-02-14T23:06:41.968Z,100.00
2019-02-14T23:09:10.626Z,100.00
2019-02-14T23:11:39.942Z,100.00
2019-02-14T23:14:09.270Z,100.00
2019-02-14T23:19:40.115Z,100.00
2019-02-14T23:25:10.500Z,100.00
2019-02-14T23:27:39.809Z,100.00
2019-02-14T23:30:08.514Z,100.00
2019-02-14T23:32:37.338Z,100.00
2019-02-14T23:35:06.807Z,100.00
2019-02-14T23:37:36.113Z,100.00
2019-02-14T23:43:07.464Z,100.00
2019-02-14T23:48:39.330Z,100.00
2019-02-14T23:51:07.826Z,100.00
2019-02-14T23:53:36.362Z,100.00
2019-02-14T23:59:07.296Z,100.00
